Time;durP1;ratioP1;P1;durP2;ratioP2;P2;SDS_P1;SDS_P2;PMS_P1;PMS_P2;Temp;Humidity;BMP_temperature;BMP_pressure;BME280_temperature;BME280_humidity;BME280_pressure;Samples;Min_cycle;Max_cycle;Signal;HPM_P1;HPM_P2
2023/09/12 00:01:49;;;;;;;77.13;50.03;;;18.40;84.50;;;;;;5022031;28;20059;-87
2023/09/12 00:04:15;;;;;;;70.70;48.05;;;18.30;84.40;;;;;;5038439;28;20053;-86
2023/09/12 00:06:40;;;;;;;97.22;57.75;;;18.30;84.20;;;;;;5039234;28;20045;-86
2023/09/12 00:09:06;;;;;;;104.47;60.65;;;18.30;84.40;;;;;;5055354;28;20132;-86
2023/09/12 00:11:36;;;;;;;99.60;58.72;;;18.30;84.60;;;;;;5055854;28;20044;-86
2023/09/12 00:14:02;;;;;;;66.38;46.85;;;18.30;84.60;;;;;;5053743;28;20056;-87
2023/09/12 00:16:28;;;;;;;65.30;47.40;;;18.30;84.40;;;;;;5056720;28;20049;-87
2023/09/12 00:18:54;;;;;;;102.78;57.40;;;18.30;84.30;;;;;;5054515;28;20091;-86
2023/09/12 00:21:20;;;;;;;92.60;56.42;;;18.30;84.40;;;;;;5039532;28;20480;-86
2023/09/12 00:23:46;;;;;;;82.88;54.25;;;18.30;84.40;;;;;;5037969;28;20033;-87
2023/09/12 00:26:11;;;;;;;66.95;47.80;;;18.30;84.50;;;;;;5039326;28;20088;-86
2023/09/12 00:28:38;;;;;;;60.17;44.38;;;18.30;84.50;;;;;;5040246;28;20090;-87
2023/09/12 00:31:04;;;;;;;116.18;60.20;;;18.20;84.40;;;;;;5056546;28;20098;-87
2023/09/12 00:33:30;;;;;;;112.22;61.45;;;18.20;84.50;;;;;;5039295;28;20085;-87
2023/09/12 00:35:55;;;;;;;127.78;62.53;;;18.20;84.60;;;;;;5039918;28;20041;-85
2023/09/12 00:38:21;;;;;;;121.50;61.28;;;18.20;84.70;;;;;;5040537;28;20190;-86
2023/09/12 00:40:50;;;;;;;96.07;55.92;;;18.20;84.70;;;;;;5040941;28;20128;-86
2023/09/12 00:43:17;;;;;;;99.13;59.13;;;18.20;84.70;;;;;;5022411;28;20448;-87
2023/09/12 00:45:43;;;;;;;95.90;56.40;;;18.10;84.70;;;;;;5039653;28;20041;-87
2023/09/12 00:48:09;;;;;;;90.35;55.45;;;18.10;84.70;;;;;;5055959;28;20139;-87
2023/09/12 00:50:36;;;;;;;76.50;50.55;;;18.10;84.70;;;;;;5056411;28;20040;-86
2023/09/12 00:53:04;;;;;;;92.25;56.20;;;18.10;84.70;;;;;;5054999;28;20072;-87
2023/09/12 00:55:32;;;;;;;88.75;55.13;;;18.10;84.70;;;;;;5041660;28;20060;-87
2023/09/12 00:57:59;;;;;;;86.68;54.45;;;18.10;84.90;;;;;;5076488;28;20048;-86
2023/09/12 01:00:25;;;;;;;92.47;55.90;;;18.00;84.90;;;;;;5058509;28;20043;-87
2023/09/12 01:02:53;;;;;;;106.72;59.25;;;18.00;84.90;;;;;;5021211;28;20037;-86
2023/09/12 01:05:20;;;;;;;112.45;60.25;;;18.00;84.90;;;;;;5055139;28;20041;-86
2023/09/12 01:07:46;;;;;;;115.43;61.67;;;18.00;85.00;;;;;;5061900;28;20048;-87
2023/09/12 01:10:12;;;;;;;101.50;57.60;;;18.00;84.90;;;;;;5057831;28;20045;-87
2023/09/12 01:12:39;;;;;;;126.03;61.83;;;18.00;84.90;;;;;;5023594;28;20063;-87
2023/09/12 01:15:13;;;;;;;149.82;66.22;;;18.00;85.00;;;;;;5077585;28;20051;-87
2023/09/12 01:17:43;;;;;;;124.60;61.17;;;18.00;85.10;;;;;;5059699;28;20054;-87
2023/09/12 01:20:14;;;;;;;135.60;63.33;;;17.90;85.30;;;;;;5042702;28;20040;-87
2023/09/12 01:23:07;;;;;;;123.85;63.08;;;17.90;85.30;;;;;;5058437;28;20078;-87
2023/09/12 01:26:12;;;;;;;107.55;59.80;;;17.80;85.40;;;;;;5077172;28;20059;-87
2023/09/12 01:28:42;;;;;;;141.15;65.88;;;17.80;85.50;;;;;;5042563;28;20072;-87
2023/09/12 01:31:09;;;;;;;111.88;60.60;;;17.80;85.50;;;;;;5059153;28;20386;-87
2023/09/12 01:33:35;;;;;;;128.98;64.80;;;17.80;85.50;;;;;;5041000;28;20083;-87
2023/09/12 01:36:01;;;;;;;97.65;58.47;;;17.80;85.50;;;;;;5075660;28;20049;-87
2023/09/12 01:38:27;;;;;;;105.63;59.85;;;17.80;85.50;;;;;;5024661;28;20048;-87
2023/09/12 01:40:54;;;;;;;113.05;63.30;;;17.80;85.50;;;;;;5074975;28;20040;-86
2023/09/12 01:43:23;;;;;;;102.15;60.00;;;17.80;85.50;;;;;;5040201;28;20115;-86
2023/09/12 01:45:54;;;;;;;101.60;59.03;;;17.80;85.60;;;;;;5040440;28;20048;-86
2023/09/12 01:48:23;;;;;;;107.28;61.10;;;17.70;85.70;;;;;;5040702;28;20523;-87
2023/09/12 01:50:49;;;;;;;136.93;68.18;;;17.70;85.70;;;;;;5058275;28;20059;-87
2023/09/12 01:53:16;;;;;;;144.55;68.28;;;17.70;85.70;;;;;;5056803;28;20072;-87
2023/09/12 01:55:47;;;;;;;128.00;65.57;;;17.70;85.80;;;;;;5024080;28;20051;-87
2023/09/12 01:58:13;;;;;;;135.13;69.28;;;17.70;85.80;;;;;;5045660;28;20045;-87
2023/09/12 02:00:43;;;;;;;83.10;54.05;;;17.70;85.80;;;;;;5055032;28;20051;-87
2023/09/12 02:03:08;;;;;;;142.80;67.05;;;17.70;85.70;;;;;;5053589;28;20064;-87
2023/09/12 02:05:35;;;;;;;117.50;62.40;;;17.70;85.80;;;;;;5020145;28;20470;-87
2023/09/12 02:08:04;;;;;;;117.40;62.83;;;17.70;85.80;;;;;;5025957;28;20073;-87
2023/09/12 02:10:31;;;;;;;121.35;61.33;;;17.60;85.80;;;;;;5036704;28;20045;-87
2023/09/12 02:12:56;;;;;;;151.60;65.40;;;17.60;85.80;;;;;;5020389;28;20045;-88
2023/09/12 02:15:22;;;;;;;136.18;60.83;;;17.60;85.70;;;;;;5036885;28;20111;-87
2023/09/12 02:17:50;;;;;;;484.27;86.03;;;17.50;85.70;;;;;;5054041;28;20494;-87
2023/09/12 02:20:16;;;;;;;281.70;67.88;;;17.50;85.70;;;;;;5020078;28;20045;-86
2023/09/12 02:22:42;;;;;;;486.38;78.88;;;17.50;85.70;;;;;;5036047;28;20041;-87
2023/09/12 02:25:09;;;;;;;582.78;87.28;;;17.40;85.70;;;;;;5053056;28;20123;-86
2023/09/12 02:27:34;;;;;;;648.85;99.15;;;17.40;85.80;;;;;;5053682;28;20483;-87
2023/09/12 02:30:00;;;;;;;322.20;82.53;;;17.40;85.90;;;;;;5037330;28;20033;-87
2023/09/12 02:32:26;;;;;;;917.17;129.93;;;17.30;85.90;;;;;;5052750;28;20049;-86
2023/09/12 02:34:53;;;;;;;681.13;118.50;;;17.30;86.00;;;;;;5020331;28;20053;-86
2023/09/12 02:37:19;;;;;;;426.83;84.18;;;17.20;86.00;;;;;;5053508;28;20471;-86
2023/09/12 02:39:45;;;;;;;802.47;113.97;;;17.20;86.10;;;;;;5069316;28;20052;-87
2023/09/12 02:42:10;;;;;;;760.47;96.47;;;17.20;86.20;;;;;;5036947;28;20045;-87
2023/09/12 02:44:36;;;;;;;954.58;121.20;;;17.20;86.30;;;;;;5057209;28;20041;-87
2023/09/12 02:47:03;;;;;;;548.42;92.28;;;17.10;86.30;;;;;;5040162;28;20044;-88
2023/09/12 02:49:29;;;;;;;322.40;85.07;;;17.00;86.30;;;;;;5057067;28;20471;-87
2023/09/12 02:51:55;;;;;;;137.68;62.78;;;17.00;86.30;;;;;;5057358;28;20056;-87
2023/09/12 02:54:21;;;;;;;175.07;69.60;;;17.00;86.50;;;;;;5057295;28;20059;-87
2023/09/12 02:56:47;;;;;;;251.10;82.30;;;17.00;86.60;;;;;;5049491;28;20052;-87
2023/09/12 02:59:12;;;;;;;327.05;92.20;;;17.00;86.70;;;;;;5057145;28;20076;-86
2023/09/12 03:01:39;;;;;;;276.48;85.22;;;17.00;86.70;;;;;;5058266;28;20083;-86
2023/09/12 03:04:04;;;;;;;274.63;87.10;;;17.00;86.70;;;;;;5040835;28;20099;-86
2023/09/12 03:06:30;;;;;;;212.40;80.28;;;16.90;86.70;;;;;;5057773;28;20069;-86
2023/09/12 03:08:56;;;;;;;345.60;98.10;;;16.90;86.70;;;;;;5040389;28;20475;-87
2023/09/12 03:11:22;;;;;;;333.42;93.70;;;16.90;86.70;;;;;;5058528;28;20041;-86
2023/09/12 03:13:49;;;;;;;254.77;81.97;;;16.90;86.70;;;;;;5057150;28;20045;-86
2023/09/12 03:16:15;;;;;;;412.27;103.60;;;16.90;86.70;;;;;;5041203;28;20045;-87
2023/09/12 03:18:41;;;;;;;371.67;98.15;;;16.90;86.80;;;;;;5057011;28;20067;-86
2023/09/12 03:21:08;;;;;;;604.65;125.80;;;16.90;86.80;;;;;;5024536;28;20052;-87
2023/09/12 03:23:34;;;;;;;226.20;83.32;;;16.90;86.80;;;;;;5039902;28;20546;-87
2023/09/12 03:26:04;;;;;;;356.70;98.93;;;16.90;86.90;;;;;;5024291;28;20032;-86
2023/09/12 03:28:30;;;;;;;325.08;97.10;;;16.80;86.90;;;;;;5006553;28;20092;-87
2023/09/12 03:31:28;;;;;;;347.13;99.53;;;16.80;87.00;;;;;;5039620;28;20080;-86
2023/09/12 03:33:54;;;;;;;385.48;103.85;;;16.80;87.10;;;;;;5064612;28;20112;-87
2023/09/12 03:36:20;;;;;;;268.90;89.47;;;16.80;87.00;;;;;;5057583;28;20137;-86
2023/09/12 03:38:45;;;;;;;220.32;81.03;;;16.80;86.90;;;;;;5039331;28;20041;-86
2023/09/12 03:41:12;;;;;;;234.85;83.35;;;16.70;86.90;;;;;;5057267;28;20084;-87
2023/09/12 03:43:38;;;;;;;255.32;86.90;;;16.70;86.90;;;;;;5006003;28;20525;-87
2023/09/12 03:46:05;;;;;;;280.80;92.00;;;16.70;86.90;;;;;;5039188;28;20090;-86
2023/09/12 03:48:31;;;;;;;183.45;74.40;;;16.70;86.80;;;;;;5022519;28;20051;-87
2023/09/12 03:50:57;;;;;;;215.77;80.20;;;16.70;86.80;;;;;;5022996;28;20487;-87
2023/09/12 03:53:29;;;;;;;261.67;87.85;;;16.70;86.80;;;;;;5008033;28;20166;-87
2023/09/12 03:55:56;;;;;;;239.07;83.95;;;16.60;86.90;;;;;;5039447;28;20546;-87
2023/09/12 03:58:24;;;;;;;266.73;86.85;;;16.60;86.90;;;;;;5057574;28;20493;-87
2023/09/12 04:00:49;;;;;;;282.23;88.28;;;16.60;86.90;;;;;;5044650;28;20045;-86
2023/09/12 04:03:16;;;;;;;274.30;86.88;;;16.60;87.00;;;;;;5055149;28;20098;-87
2023/09/12 04:05:42;;;;;;;286.17;89.80;;;16.60;87.10;;;;;;5056823;28;20052;-87
2023/09/12 04:08:07;;;;;;;253.85;86.35;;;16.60;87.10;;;;;;5021842;28;20364;-86
2023/09/12 04:10:33;;;;;;;342.15;97.10;;;16.60;87.10;;;;;;5055665;28;20099;-87
2023/09/12 04:12:59;;;;;;;221.43;78.72;;;16.60;87.10;;;;;;5021846;28;20040;-87
2023/09/12 04:15:25;;;;;;;339.48;95.57;;;16.60;87.20;;;;;;5055812;28;20483;-87
2023/09/12 04:17:50;;;;;;;264.52;85.82;;;16.60;87.20;;;;;;5037636;28;20120;-87
2023/09/12 04:20:16;;;;;;;627.22;107.22;;;16.60;87.20;;;;;;5022398;28;20467;-87
2023/09/12 04:22:43;;;;;;;608.47;115.65;;;16.60;87.20;;;;;;5037732;28;20040;-86
2023/09/12 04:25:08;;;;;;;302.65;88.00;;;16.60;87.20;;;;;;5058079;28;20049;-87
2023/09/12 04:27:43;;;;;;;319.95;89.72;;;16.60;87.30;;;;;;5035906;28;20043;-88
2023/09/12 04:30:09;;;;;;;417.58;91.68;;;16.60;87.40;;;;;;5039083;28;20040;-88
2023/09/12 04:32:35;;;;;;;918.33;135.27;;;16.60;87.40;;;;;;5034311;28;20131;-87
2023/09/12 04:35:01;;;;;;;686.20;113.90;;;16.60;87.30;;;;;;5050730;28;20095;-87
2023/09/12 04:37:27;;;;;;;593.35;102.80;;;16.60;87.50;;;;;;5023346;28;20053;-88
2023/09/12 04:39:53;;;;;;;602.95;106.80;;;16.60;87.50;;;;;;5056075;28;20049;-87
2023/09/12 04:42:18;;;;;;;747.38;107.28;;;16.60;87.60;;;;;;5073439;28;20045;-85
2023/09/12 04:44:44;;;;;;;510.00;95.63;;;16.60;87.60;;;;;;5023120;28;20067;-87
2023/09/12 04:47:16;;;;;;;682.20;105.70;;;16.60;87.60;;;;;;5024858;28;20102;-86
2023/09/12 04:49:43;;;;;;;556.47;102.07;;;16.60;87.60;;;;;;5046081;28;20037;-87
2023/09/12 04:52:08;;;;;;;854.47;128.48;;;16.60;87.60;;;;;;5056476;28;20125;-88
2023/09/12 04:54:34;;;;;;;1157.72;153.40;;;16.60;87.70;;;;;;5040265;28;20084;-87
2023/09/12 04:57:00;;;;;;;971.45;140.07;;;16.60;87.80;;;;;;5056927;28;20088;-87
2023/09/12 04:59:26;;;;;;;1067.70;159.82;;;16.60;87.80;;;;;;5023767;28;20119;-87
2023/09/12 05:01:53;;;;;;;1085.05;151.50;;;16.60;87.70;;;;;;5022680;28;20099;-88
2023/09/12 05:04:19;;;;;;;1341.68;190.35;;;16.70;87.80;;;;;;5006032;28;20060;-87
2023/09/12 05:06:46;;;;;;;652.15;101.80;;;16.70;87.90;;;;;;5057500;28;20049;-87
2023/09/12 05:09:12;;;;;;;667.08;105.25;;;16.70;87.90;;;;;;5039537;28;20053;-88
2023/09/12 05:11:38;;;;;;;831.83;130.75;;;16.70;87.90;;;;;;5006759;28;20048;-87
2023/09/12 05:14:04;;;;;;;1000.55;145.52;;;16.70;87.90;;;;;;5038280;28;20059;-88
2023/09/12 05:16:30;;;;;;;1043.93;161.88;;;16.60;87.90;;;;;;5038870;28;20373;-87
2023/09/12 05:18:55;;;;;;;920.88;137.27;;;16.60;87.90;;;;;;5037783;28;20049;-86
2023/09/12 05:21:21;;;;;;;657.75;97.82;;;16.60;87.90;;;;;;5022409;28;20090;-86
2023/09/12 05:23:47;;;;;;;944.10;139.82;;;16.60;87.80;;;;;;5037580;28;20048;-86
2023/09/12 05:26:20;;;;;;;622.05;99.22;;;16.60;87.80;;;;;;5030124;28;20426;-86
2023/09/12 05:28:46;;;;;;;793.90;134.35;;;16.50;87.80;;;;;;5016201;28;20048;-86
2023/09/12 05:31:12;;;;;;;923.95;137.30;;;16.50;87.80;;;;;;5037914;28;20118;-87
2023/09/12 05:33:39;;;;;;;474.83;92.55;;;16.50;87.80;;;;;;5014638;28;20049;-87
2023/09/12 05:36:04;;;;;;;585.30;106.80;;;16.50;87.80;;;;;;5035198;28;20484;-87
2023/09/12 05:38:33;;;;;;;597.38;104.97;;;16.50;87.70;;;;;;5035580;28;20052;-88
2023/09/12 05:40:59;;;;;;;580.58;97.13;;;16.50;87.70;;;;;;5015181;28;20387;-87
2023/09/12 05:43:25;;;;;;;488.75;102.30;;;16.40;87.70;;;;;;5000152;28;20041;-86
2023/09/12 05:45:52;;;;;;;398.33;92.53;;;16.40;87.60;;;;;;5033935;28;20057;-87
2023/09/12 05:48:19;;;;;;;353.27;90.47;;;16.40;87.60;;;;;;5035305;28;20052;-87
2023/09/12 05:50:45;;;;;;;476.88;111.10;;;16.50;87.70;;;;;;5018873;28;20046;-87
2023/09/12 05:53:11;;;;;;;304.88;86.55;;;16.40;87.70;;;;;;5033958;28;20050;-86
2023/09/12 05:55:39;;;;;;;471.00;98.85;;;16.50;87.80;;;;;;5037453;28;20110;-87
2023/09/12 05:58:05;;;;;;;648.10;129.70;;;16.50;87.90;;;;;;5054651;28;20055;-87
2023/09/12 06:00:32;;;;;;;623.72;116.78;;;16.60;88.00;;;;;;5053883;28;20499;-87
2023/09/12 06:02:58;;;;;;;831.78;134.18;;;16.60;88.00;;;;;;5020244;28;20077;-88
2023/09/12 06:05:26;;;;;;;860.25;138.15;;;16.60;88.10;;;;;;5054355;28;20047;-86
2023/09/12 06:07:52;;;;;;;978.90;146.88;;;16.60;88.20;;;;;;5003881;28;20112;-87
2023/09/12 06:10:23;;;;;;;;;;;16.60;88.20;;;;;;5038651;28;20045;-86
2023/09/12 06:12:49;;;;;;;820.63;139.05;;;16.60;88.50;;;;;;5020125;28;19916;-87
2023/09/12 06:15:15;;;;;;;818.55;144.25;;;16.60;88.60;;;;;;5037390;28;20033;-87
2023/09/12 06:17:41;;;;;;;753.55;136.98;;;16.60;88.60;;;;;;5023422;28;20123;-87
2023/09/12 06:20:08;;;;;;;813.75;152.65;;;16.70;88.90;;;;;;5024734;28;20132;-87
2023/09/12 06:22:34;;;;;;;921.08;165.57;;;16.70;88.90;;;;;;5055775;28;20044;-88
2023/09/12 06:25:00;;;;;;;779.25;138.82;;;16.80;88.80;;;;;;5041500;28;20045;-87
2023/09/12 06:27:26;;;;;;;885.63;159.05;;;16.90;88.90;;;;;;5040724;28;20475;-87
2023/09/12 06:29:52;;;;;;;587.72;131.48;;;16.90;88.70;;;;;;5041470;28;20041;-86
2023/09/12 06:32:18;;;;;;;732.78;146.57;;;16.90;88.80;;;;;;5047227;28;20041;-87
2023/09/12 06:34:44;;;;;;;534.70;132.10;;;17.00;88.70;;;;;;5043765;28;20108;-86
2023/09/12 06:37:13;;;;;;;408.80;112.35;;;17.00;88.70;;;;;;5057936;28;20049;-87
2023/09/12 06:39:39;;;;;;;654.30;138.18;;;17.00;88.60;;;;;;5057763;28;20048;-87
2023/09/12 06:42:05;;;;;;;642.33;141.02;;;17.00;88.70;;;;;;5008161;28;20049;-86
2023/09/12 06:44:30;;;;;;;545.15;126.65;;;17.00;88.60;;;;;;5059235;28;20131;-87
2023/09/12 06:46:58;;;;;;;438.55;115.85;;;17.10;88.70;;;;;;5057685;28;20057;-86
2023/09/12 06:49:23;;;;;;;585.58;137.98;;;17.20;88.60;;;;;;5040324;28;20041;-88
2023/09/12 06:51:49;;;;;;;449.67;119.15;;;17.20;88.60;;;;;;5056963;28;20080;-86
2023/09/12 06:54:16;;;;;;;441.05;111.03;;;17.20;88.60;;;;;;5023395;28;20052;-86
2023/09/12 06:56:42;;;;;;;370.38;106.13;;;17.20;88.60;;;;;;5068053;28;20053;-87
2023/09/12 06:59:08;;;;;;;330.15;96.07;;;17.20;88.50;;;;;;5059008;28;20117;-87
2023/09/12 07:01:34;;;;;;;600.22;138.43;;;17.20;88.50;;;;;;5076515;28;20040;-86
2023/09/12 07:04:00;;;;;;;485.83;125.55;;;17.30;88.50;;;;;;5076068;28;20040;-87
2023/09/12 07:06:33;;;;;;;454.92;117.43;;;17.40;88.70;;;;;;5077182;28;20071;-86
2023/09/12 07:09:00;;;;;;;522.50;127.82;;;17.40;88.60;;;;;;5059843;28;20040;-86
2023/09/12 07:11:25;;;;;;;357.15;103.88;;;17.40;88.50;;;;;;5076520;28;20048;-86
2023/09/12 07:13:52;;;;;;;392.58;112.15;;;17.40;88.50;;;;;;5059620;28;20071;-86
2023/09/12 07:16:24;;;;;;;353.77;104.88;;;17.40;88.50;;;;;;5077851;28;20098;-86
2023/09/12 07:18:52;;;;;;;292.10;96.50;;;17.50;88.50;;;;;;5058121;28;20044;-86
2023/09/12 07:21:18;;;;;;;378.20;109.47;;;17.50;88.60;;;;;;5077070;28;20047;-86
2023/09/12 07:23:43;;;;;;;338.88;102.43;;;17.50;88.60;;;;;;5059689;28;20106;-86
2023/09/12 07:26:14;;;;;;;317.85;99.28;;;17.50;88.50;;;;;;5077220;28;20422;-86
2023/09/12 07:28:39;;;;;;;297.85;99.25;;;17.50;88.50;;;;;;5041735;28;20044;-86
2023/09/12 07:31:06;;;;;;;340.02;103.03;;;17.50;88.40;;;;;;5076498;28;20040;-86
2023/09/12 07:33:32;;;;;;;280.17;96.65;;;17.50;88.40;;;;;;5066243;28;20360;-87
2023/09/12 07:35:59;;;;;;;305.17;99.82;;;17.50;88.40;;;;;;5072108;28;20045;-87
2023/09/12 07:38:25;;;;;;;315.35;100.10;;;17.50;88.40;;;;;;5077334;28;20040;-86
2023/09/12 07:40:51;;;;;;;253.02;92.25;;;17.50;88.50;;;;;;5076278;28;20497;-86
2023/09/12 07:43:17;;;;;;;255.00;91.55;;;17.50;88.50;;;;;;5075350;28;20058;-86
2023/09/12 07:45:43;;;;;;;260.73;91.47;;;17.50;88.50;;;;;;5059343;28;20048;-86
2023/09/12 07:48:11;;;;;;;240.27;88.93;;;17.60;88.60;;;;;;5058955;28;20040;-86
2023/09/12 07:50:38;;;;;;;261.60;92.82;;;17.60;88.60;;;;;;5059477;28;20459;-86
2023/09/12 07:53:08;;;;;;;237.32;90.03;;;17.60;88.70;;;;;;5075095;28;20131;-87
2023/09/12 07:55:45;;;;;;;257.63;91.72;;;17.60;88.50;;;;;;5075247;28;20044;-87
2023/09/12 07:58:12;;;;;;;222.50;86.78;;;17.70;88.50;;;;;;5075201;28;20529;-86
2023/09/12 08:00:38;;;;;;;274.15;92.65;;;17.80;88.60;;;;;;5075680;28;20080;-86
2023/09/12 08:03:05;;;;;;;216.80;87.38;;;17.80;88.70;;;;;;5052387;28;20086;-87
2023/09/12 08:05:31;;;;;;;263.40;93.68;;;17.80;88.70;;;;;;5026513;28;20040;-86
2023/09/12 08:07:57;;;;;;;277.98;94.95;;;17.90;88.70;;;;;;5059009;28;20440;-86
2023/09/12 08:10:22;;;;;;;222.68;87.05;;;18.00;88.70;;;;;;5043029;28;20059;-86
2023/09/12 08:12:48;;;;;;;264.67;91.53;;;18.00;88.70;;;;;;5067962;28;20044;-85
2023/09/12 08:15:14;;;;;;;255.68;93.05;;;18.00;88.70;;;;;;5075311;28;20044;-86
2023/09/12 08:17:41;;;;;;;206.98;82.82;;;18.00;88.60;;;;;;5074202;28;20462;-86
2023/09/12 08:20:11;;;;;;;203.23;83.25;;;18.10;88.60;;;;;;5059237;28;20098;-86
2023/09/12 08:22:38;;;;;;;238.30;87.40;;;18.10;88.60;;;;;;5058125;28;20506;-87
2023/09/12 08:25:05;;;;;;;197.27;81.65;;;18.10;88.50;;;;;;5058698;28;20040;-86
2023/09/12 08:27:31;;;;;;;212.55;82.38;;;18.20;88.50;;;;;;5058357;28;20032;-87
2023/09/12 08:29:57;;;;;;;229.68;86.93;;;18.20;88.40;;;;;;5059036;28;20067;-86
2023/09/12 08:32:23;;;;;;;207.50;84.25;;;18.20;88.50;;;;;;5057468;28;20503;-86
2023/09/12 08:34:48;;;;;;;193.10;82.25;;;18.30;88.60;;;;;;5075116;28;20067;-86
2023/09/12 08:37:14;;;;;;;190.35;78.95;;;18.30;88.50;;;;;;5069277;28;20049;-86
2023/09/12 08:39:45;;;;;;;189.63;80.57;;;18.30;88.50;;;;;;5074323;28;20525;-86
2023/09/12 08:42:15;;;;;;;208.00;82.35;;;18.40;88.40;;;;;;5073621;28;20479;-87
2023/09/12 08:44:42;;;;;;;209.30;85.43;;;18.40;88.40;;;;;;5025494;28;20044;-86
2023/09/12 08:47:10;;;;;;;218.77;85.70;;;18.50;88.40;;;;;;5053422;28;20073;-86
2023/09/12 08:49:42;;;;;;;207.95;84.03;;;18.50;88.40;;;;;;5054919;28;20041;-86
2023/09/12 08:52:08;;;;;;;215.32;85.38;;;18.50;88.30;;;;;;5068412;28;20044;-86
2023/09/12 08:54:34;;;;;;;207.23;83.70;;;18.60;88.30;;;;;;5058219;28;20044;-87
2023/09/12 08:57:03;;;;;;;168.93;79.35;;;18.60;88.20;;;;;;5074346;28;20056;-87
2023/09/12 08:59:32;;;;;;;174.43;77.53;;;18.60;88.00;;;;;;5074266;28;20036;-86
2023/09/12 09:01:59;;;;;;;176.10;79.22;;;18.60;88.20;;;;;;5058156;28;20128;-84
2023/09/12 09:04:28;;;;;;;184.20;79.13;;;18.70;88.20;;;;;;5057442;28;20215;-86
2023/09/12 09:06:55;;;;;;;196.48;82.90;;;18.70;88.20;;;;;;5058248;28;20032;-86
2023/09/12 09:09:21;;;;;;;176.38;79.93;;;18.80;88.20;;;;;;5057598;28;20047;-86
2023/09/12 09:11:48;;;;;;;170.55;80.20;;;18.80;88.20;;;;;;5075049;28;20078;-86
2023/09/12 09:14:13;;;;;;;149.75;73.47;;;18.90;88.10;;;;;;5073295;28;20044;-86
2023/09/12 09:16:39;;;;;;;175.50;81.45;;;19.00;88.10;;;;;;5038239;28;20040;-85
2023/09/12 09:19:09;;;;;;;145.30;74.47;;;19.10;88.10;;;;;;5054834;28;20041;-86
2023/09/12 09:21:36;;;;;;;146.85;75.65;;;19.10;88.00;;;;;;5039053;28;20045;-85
2023/09/12 09:24:07;;;;;;;130.75;67.45;;;19.20;88.00;;;;;;5039430;28;20053;-86
2023/09/12 09:26:43;;;;;;;137.15;71.22;;;19.30;87.80;;;;;;5055632;28;20041;-84
2023/09/12 09:29:10;;;;;;;131.10;69.60;;;19.30;87.80;;;;;;5054525;28;20136;-86
2023/09/12 09:31:41;;;;;;;117.80;64.68;;;19.40;87.60;;;;;;5055258;28;20056;-86
2023/09/12 09:34:15;;;;;;;134.18;70.40;;;19.40;87.50;;;;;;5021867;28;20049;-85
2023/09/12 09:36:42;;;;;;;132.07;68.38;;;19.50;87.40;;;;;;5055229;28;20115;-85
2023/09/12 09:39:09;;;;;;;101.10;58.30;;;19.50;87.30;;;;;;5022259;28;20056;-85
2023/09/12 09:41:35;;;;;;;98.93;56.95;;;19.50;86.80;;;;;;5054795;28;20480;-84
2023/09/12 09:44:04;;;;;;;101.75;59.75;;;19.50;86.60;;;;;;5054484;28;20052;-86
2023/09/12 09:46:29;;;;;;;92.65;56.65;;;19.60;86.30;;;;;;5055092;28;20472;-86
2023/09/12 09:48:55;;;;;;;97.82;59.17;;;19.70;86.30;;;;;;5038091;28;20056;-84
2023/09/12 09:51:21;;;;;;;82.05;54.13;;;19.70;86.30;;;;;;5037683;28;20053;-84
2023/09/12 09:53:58;;;;;;;93.00;58.42;;;19.80;86.00;;;;;;5055130;28;20116;-85
2023/09/12 09:56:25;;;;;;;101.93;58.80;;;19.90;86.00;;;;;;5055218;28;20087;-85
2023/09/12 09:58:55;;;;;;;93.82;57.70;;;20.00;85.90;;;;;;5053609;28;20073;-86
2023/09/12 10:01:30;;;;;;;90.85;55.63;;;20.00;85.70;;;;;;5038561;28;20123;-84
2023/09/12 10:04:02;;;;;;;82.78;52.78;;;20.10;85.50;;;;;;5053738;28;20503;-84
2023/09/12 10:06:29;;;;;;;75.80;51.45;;;20.30;85.20;;;;;;5054947;28;20045;-85
2023/09/12 10:08:57;;;;;;;74.80;50.67;;;20.30;85.00;;;;;;5061172;28;20067;-84
2023/09/12 10:11:27;;;;;;;72.63;48.53;;;20.40;84.70;;;;;;5055418;28;20138;-83
2023/09/12 10:13:55;;;;;;;75.07;49.10;;;20.40;84.20;;;;;;5054793;28;20045;-85
2023/09/12 10:16:27;;;;;;;76.32;49.28;;;20.50;84.10;;;;;;5055106;28;20090;-83
2023/09/12 10:19:17;;;;;;;66.43;45.20;;;20.50;84.10;;;;;;5038177;28;20044;-83
2023/09/12 10:21:49;;;;;;;67.95;46.17;;;20.50;83.20;;;;;;5057153;28;20037;-85
2023/09/12 10:24:15;;;;;;;67.32;48.03;;;20.50;83.70;;;;;;5038793;28;20174;-84
2023/09/12 10:26:45;;;;;;;61.03;42.95;;;20.60;83.70;;;;;;5055191;28;20046;-85
2023/09/12 10:29:14;;;;;;;73.40;49.20;;;20.60;83.00;;;;;;5054895;28;20044;-85
2023/09/12 10:31:41;;;;;;;60.97;44.03;;;20.70;83.20;;;;;;5054195;28;20053;-85
2023/09/12 10:34:12;;;;;;;60.47;42.45;;;20.80;83.20;;;;;;5075193;28;20079;-86
2023/09/12 10:36:43;;;;;;;62.92;44.53;;;20.80;82.90;;;;;;5075768;28;20048;-86
2023/09/12 10:39:11;;;;;;;60.13;43.53;;;20.90;82.70;;;;;;5057588;28;20472;-85
2023/09/12 10:41:40;;;;;;;50.10;37.50;;;21.00;82.70;;;;;;5060036;28;20053;-83
2023/09/12 10:44:17;;;;;;;53.63;36.72;;;21.10;82.30;;;;;;5059688;28;20068;-86
2023/09/12 10:46:45;;;;;;;54.33;36.95;;;21.10;81.60;;;;;;5056785;28;20492;-85
2023/09/12 10:49:13;;;;;;;57.63;39.95;;;21.10;81.80;;;;;;5072955;28;20045;-85
2023/09/12 10:51:46;;;;;;;57.92;40.72;;;21.10;81.90;;;;;;5075325;28;20051;-82
2023/09/12 10:54:25;;;;;;;56.42;40.58;;;21.10;81.80;;;;;;5057675;28;20127;-85
2023/09/12 10:57:03;;;;;;;56.50;40.22;;;21.20;81.40;;;;;;5074403;28;20488;-86
2023/09/12 10:59:31;;;;;;;55.50;39.03;;;21.30;81.40;;;;;;5061367;28;20068;-85
2023/09/12 11:02:27;;;;;;;56.40;40.72;;;21.30;81.50;;;;;;5057163;28;20552;-85
2023/09/12 11:04:52;;;;;;;55.78;37.85;;;21.40;81.20;;;;;;5077410;28;20056;-85
2023/09/12 11:07:36;;;;;;;54.97;39.33;;;21.40;81.30;;;;;;5076968;28;20278;-85
2023/09/12 11:10:20;;;;;;;63.70;41.22;;;21.50;80.80;;;;;;5076625;28;20040;-85
2023/09/12 11:12:51;;;;;;;57.67;40.28;;;21.50;80.70;;;;;;5060403;28;20096;-85
2023/09/12 11:15:20;;;;;;;62.88;40.95;;;21.60;81.00;;;;;;5077571;28;20052;-85
2023/09/12 11:17:59;;;;;;;54.20;40.08;;;21.70;81.00;;;;;;5059647;28;20040;-84
2023/09/12 11:20:49;;;;;;;45.72;32.97;;;21.70;80.80;;;;;;5077798;28;20509;-84
2023/09/12 11:23:15;;;;;;;36.40;29.02;;;21.80;79.70;;;;;;5078402;28;20049;-84
2023/09/12 11:25:41;;;;;;;40.35;28.85;;;21.90;80.00;;;;;;5077702;28;20471;-85
2023/09/12 11:28:07;;;;;;;35.65;26.58;;;21.90;79.80;;;;;;5059303;28;20135;-84
2023/09/12 11:30:34;;;;;;;36.13;26.25;;;21.90;79.40;;;;;;5078157;28;20439;-85
2023/09/12 11:33:04;;;;;;;38.40;27.17;;;22.00;78.90;;;;;;5077708;28;20123;-85
2023/09/12 11:35:40;;;;;;;34.35;26.10;;;22.10;78.70;;;;;;5076905;28;20044;-84
2023/09/12 11:38:10;;;;;;;33.03;26.23;;;22.20;78.60;;;;;;5078009;28;20083;-84
2023/09/12 11:40:35;;;;;;;25.90;20.05;;;22.20;78.10;;;;;;5076559;28;20059;-83
2023/09/12 11:43:01;;;;;;;26.50;19.05;;;22.20;77.90;;;;;;5058666;28;20040;-83
2023/09/12 11:45:27;;;;;;;24.80;18.00;;;22.20;77.20;;;;;;5060237;28;20041;-83
2023/09/12 11:47:54;;;;;;;22.23;16.85;;;22.20;77.30;;;;;;5059403;28;20044;-83
2023/09/12 11:50:30;;;;;;;26.08;18.00;;;22.30;77.20;;;;;;5078438;28;20056;-83
2023/09/12 11:53:10;;;;;;;22.27;15.40;;;22.50;77.30;;;;;;5077456;28;20094;-84
2023/09/12 11:55:43;;;;;;;25.15;17.95;;;22.60;76.70;;;;;;5076317;28;20045;-83
2023/09/12 11:58:14;;;;;;;26.90;19.33;;;22.70;76.20;;;;;;5056608;28;20464;-82
2023/09/12 12:00:51;;;;;;;23.23;16.50;;;22.70;76.20;;;;;;5040209;28;20045;-84
2023/09/12 12:03:18;;;;;;;19.55;13.20;;;22.70;75.00;;;;;;5056006;28;20056;-85
2023/09/12 12:05:45;;;;;;;13.93;10.95;;;22.50;74.70;;;;;;5039629;28;20088;-84
2023/09/12 12:08:12;;;;;;;13.93;11.07;;;22.40;75.70;;;;;;5055205;28;20387;-84
2023/09/12 12:10:39;;;;;;;12.25;8.98;;;22.30;76.30;;;;;;5022565;28;20070;-85
2023/09/12 12:13:08;;;;;;;13.35;8.43;;;22.20;76.20;;;;;;5055641;28;20483;-83
2023/09/12 12:15:33;;;;;;;9.82;6.93;;;22.00;76.10;;;;;;5055410;28;20094;-83
2023/09/12 12:17:59;;;;;;;11.35;6.45;;;21.90;75.80;;;;;;5022190;28;20041;-83
2023/09/12 12:20:25;;;;;;;13.57;6.63;;;21.70;75.50;;;;;;5038445;28;20437;-84
2023/09/12 12:22:51;;;;;;;13.00;6.95;;;21.60;75.40;;;;;;5038015;28;20595;-84